• Join FlightAware (Why Join?)
  • Login
  • US Flag 
05:10AM EDT


 

Airport Tracker/Info


-or-


 

Live Flight TrackerFlight Track Log ✈ N539UA ✈ 15-Jun-2013 ✈ KORD - KPDX

Flight Track Log - Related Links

Times and Time Zones

All times are in EDT time to prevent confusion due to time zone crossing. See the N539UA flight status page for this flight to view local times or setup timezone preferences in your user account.

Time Position Orientation Groundspeed Altitude Reporting Facility
EDT Latitude Longitude Course Direction KTS MPH feet Rate Location/Type
10:09AM 41.9500 -87.9167 270° West 165 190 1,900  Level Chicago TRACON
10:10AM 41.9500 -87.9833 270° West 231 266 2,800 1,680 Climbing Chicago TRACON
10:11AM 41.9500 -88.0833 270° West 259 298 5,100 2,340 Climbing Chicago TRACON
10:12AM 41.9667 -88.3549 270° West  Level FlightAware Approximate
10:12AM 41.9456 -88.1403 264° West 247 284 6,800  Level Chicago Center
10:13AM 41.9667 -88.5066 270° West  Level FlightAware Approximate
10:13AM 41.9456 -88.2397 270° West 266 306 9,800  Level Chicago Center
10:14AM 41.9668 -88.6582 270° West  Level FlightAware Approximate
10:14AM 41.9469 -88.3411 271° West 273 314 12,400  Level Chicago Center
10:15AM 41.9683 -88.4669 283° West 299 344 13,800 1,740 Climbing Chicago Center
10:16AM 42.0022 -88.5819 292° West 328 377 16,000 1,920 Climbing Chicago Center
10:17AM 42.0369 -88.6983 292° West 336 387 17,800 1,740 Climbing Chicago Center
10:18AM 42.0536 -88.8283 280° West 354 407 19,600 1,860 Climbing Chicago Center
10:19AM 42.0639 -88.9603 276° West 356 410 21,700 1,740 Climbing Chicago Center
10:20AM 42.0750 -89.0967 276° West 360 414 23,200 1,500 Climbing Chicago Center
10:21AM 42.0850 -89.2364 276° West 372 428 24,800 1,260 Climbing Chicago Center
10:22AM 42.0956 -89.4053 275° West 384 442 25,900 1,020 Climbing Chicago Center
10:23AM 42.1283 -89.5561 286° West 417 480 27,000 1,140 Climbing Chicago Center
10:24AM 42.1761 -89.7081 293° West 437 503 28,300 1,080 Climbing Chicago Center
10:25AM 42.2228 -89.8603 293° West 437 503 29,300 840 Climbing Chicago Center
10:26AM 42.2681 -90.0039 293° West 441 507 30,100 960 Climbing Chicago Center
10:27AM 42.3144 -90.1556 293° West 442 509 31,300 900 Climbing Chicago Center
10:28AM 42.3692 -90.3372 292° West 438 504 32,000 480 Climbing Chicago Center
10:29AM 42.4147 -90.4889 292° West 439 505 32,400 660 Climbing Chicago Center
10:30AM 42.4594 -90.6378 292° West 433 498 33,400 780 Climbing Chicago Center
10:31AM 42.5031 -90.7814 292° West 420 483 34,000 240 Climbing Chicago Center
10:32AM 42.5464 -90.9294 292° West 423 487 34,000  Level Chicago Center
10:33AM 42.5986 -91.1089 292° West 431 496 34,000  Level Chicago Center
10:34AM 42.6425 -91.2608 291° West 434 499 34,000  Level Chicago Center
10:35AM 42.6867 -91.4142 291° West 437 503 34,000  Level Chicago Center
10:36AM 42.7333 -91.5786 291° West 428 493 34,000  Level Chicago Center
10:37AM 42.7764 -91.7286 291° West 426 490 34,000  Level Chicago Center
10:38AM 42.8175 -91.8739 291° West 426 490 34,000  Level Chicago Center
10:40AM 42.8586 -92.0214 291° West 420 483 34,000  Level Chicago Center
10:40AM 42.8756 -92.0808 291° West 420 483 34,000  Level Minneapolis Center
10:41AM 42.8994 -92.1686 290° West 420 483 34,000  Level Chicago Center
10:42AM 42.9408 -92.3169 291° West 421 484 34,000  Level Chicago Center
10:42AM 42.9569 -92.3769 290° West 420 483 34,000  Level Minneapolis Center
10:43AM 43.0058 -92.5544 291° West 420 483 34,000  Level Minneapolis Center
10:44AM 43.0306 -92.6419 291° West 420 483 34,000  Level Chicago Center
10:44AM 43.0481 -92.7006 292° West 419 482 34,000  Level Minneapolis Center
10:45AM 43.0878 -92.8514 290° West 423 487 34,000  Level Minneapolis Center
10:46AM 43.1286 -92.9978 291° West 417 480 34,000  Level Minneapolis Center
10:47AM 43.1678 -93.1456 290° West 416 479 34,000  Level Minneapolis Center
10:48AM 43.2069 -93.2922 290° West 415 478 34,000  Level Minneapolis Center
10:49AM 43.2536 -93.4694 290° West 416 479 34,000  Level Minneapolis Center
10:50AM 43.2936 -93.6169 290° West 416 479 34,000  Level Minneapolis Center
10:51AM 43.3325 -93.7667 290° West 418 481 34,000  Level Minneapolis Center
10:52AM 43.3725 -93.9156 290° West 420 483 34,000  Level Minneapolis Center
10:53AM 43.4181 -94.0936 289° West 416 479 34,000  Level Minneapolis Center
10:55AM 43.4631 -94.2675 290° West 419 482 34,000  Level Minneapolis Center
10:56AM 43.5003 -94.4206 289° West 420 483 34,000  Level Minneapolis Center
10:57AM 43.5397 -94.5731 290° West 422 486 34,000  Level Minneapolis Center
10:58AM 43.5703 -94.6961 289° West 424 488 34,000  Level Minneapolis Center
10:59AM 43.6175 -94.8817 289° West 426 490 34,000  Level Minneapolis Center
11:00AM 43.6653 -95.0644 290° West 423 487 34,000  Level Minneapolis Center
11:01AM 43.7031 -95.2186 289° West 423 487 34,000  Level Minneapolis Center
11:02AM 43.7397 -95.3719 288° West 422 486 34,000  Level Minneapolis Center
11:03AM 43.7703 -95.4936 289° West 420 483 34,000  Level Minneapolis Center
11:04AM 43.8142 -95.6767 288° West 419 482 34,000  Level Minneapolis Center
11:05AM 43.8506 -95.8292 288° West 417 480 34,000  Level Minneapolis Center
11:06AM 43.8867 -95.9819 288° West 417 480 34,000  Level Minneapolis Center
11:07AM 43.9300 -96.1647 288° West 414 476 34,000  Level Minneapolis Center
11:08AM 43.9656 -96.3181 288° West 413 475 34,000  Level Minneapolis Center
11:09AM 44.0025 -96.4739 288° West 417 480 34,000  Level Minneapolis Center
11:10AM 44.0386 -96.6303 288° West 422 486 34,000  Level Minneapolis Center
11:11AM 44.0739 -96.7867 287° West 423 487 34,000  Level Minneapolis Center
11:12AM 44.1097 -96.9450 288° West 428 493 34,000  Level Minneapolis Center
11:13AM 44.1450 -97.1028 287° West 427 491 34,000  Level Minneapolis Center
11:14AM 44.1819 -97.2611 288° West 430 495 34,000  Level Minneapolis Center
11:15AM 44.2175 -97.4203 287° West 430 495 34,000  Level Minneapolis Center
11:16AM 44.2597 -97.6117 287° West 431 496 34,000  Level Minneapolis Center
11:17AM 44.2947 -97.7719 287° West 433 498 34,000  Level Minneapolis Center
11:18AM 44.3289 -97.9339 286° West 435 501 34,000  Level Minneapolis Center
11:19AM 44.3644 -98.0975 287° West 437 503 34,000  Level Minneapolis Center
11:20AM 44.3981 -98.2600 286° West 438 504 34,000  Level Minneapolis Center
11:21AM 44.4353 -98.4203 288° West 437 503 34,000  Level Minneapolis Center
11:22AM 44.4700 -98.5853 286° West 438 504 34,000  Level Minneapolis Center
11:23AM 44.5142 -98.7814 288° West 440 506 34,000  Level Minneapolis Center
11:24AM 44.5469 -98.9486 285° West 442 509 34,000  Level Minneapolis Center
11:25AM 44.5803 -99.1156 286° West 443 510 34,000  Level Minneapolis Center
11:26AM 44.6142 -99.2842 286° West 447 514 34,000 480 Level Minneapolis Center
11:27AM 44.6469 -99.4494 286° West 442 509 35,000 840 Climbing Minneapolis Center
11:29AM 44.6789 -99.6097 286° West 430 495 35,800 480 Climbing Minneapolis Center
11:30AM 44.7106 -99.7697 286° West 425 489 36,000 60 Climbing Minneapolis Center
11:31AM 44.7422 -99.9300 286° West 423 487 36,000  Level Minneapolis Center
11:32AM 44.7728 -100.0914 285° West 422 486 36,000  Level Minneapolis Center
11:33AM 44.8033 -100.2500 285° West 418 481 36,000  Level Minneapolis Center
11:34AM 44.8403 -100.4383 286° West 414 476 36,000  Level Minneapolis Center
11:35AM 44.8697 -100.5942 285° West 411 473 36,000  Level Minneapolis Center
11:36AM 44.9000 -100.7492 285° West 409 471 36,000  Level Minneapolis Center
11:37AM 44.9294 -100.9047 285° West 410 472 36,000  Level Minneapolis Center
11:38AM 44.9586 -101.0611 285° West 411 473 36,000  Level Minneapolis Center
11:39AM 44.9881 -101.2175 285° West 411 473 36,000  Level Minneapolis Center
11:40AM 45.0167 -101.3719 285° West 408 470 36,000  Level Minneapolis Center
11:41AM 45.0508 -101.5564 285° West 405 466 36,000  Level Minneapolis Center
11:42AM 45.0783 -101.7106 284° West 404 465 36,000  Level Minneapolis Center
11:43AM 45.1006 -101.8650 282° West 402 463 36,000  Level Minneapolis Center
11:44AM 45.1214 -102.0197 281° West 400 460 36,000  Level Minneapolis Center
11:45AM 45.1406 -102.1739 280° West 399 459 36,000  Level Minneapolis Center
11:46AM 45.1619 -102.3256 281° West 395 455 36,000  Level Minneapolis Center
11:47AM 45.1822 -102.4778 281° West 394 453 36,000  Level Minneapolis Center
11:48AM 45.2053 -102.6603 280° West 392 451 36,000  Level Minneapolis Center
11:49AM 45.2253 -102.8103 281° West 390 449 36,000  Level Minneapolis Center
11:50AM 45.2436 -102.9606 280° West 387 445 36,000  Level Minneapolis Center
11:51AM 45.2644 -103.1306 280° West 386 444 36,000  Level Salt Lake Center
11:52AM 45.2836 -103.2817 280° West 388 447 36,000  Level Salt Lake Center
11:53AM 45.3014 -103.4314 280° West 386 444 36,000  Level Salt Lake Center
11:54AM 45.3200 -103.5839 280° West 390 449 36,000  Level Salt Lake Center
11:55AM 45.3417 -103.7647 280° West 389 448 36,000  Level Salt Lake Center
11:57AM 45.3592 -103.9172 279° West 390 449 36,000  Level Salt Lake Center
11:58AM 45.3772 -104.0744 279° West 397 457 36,000  Level Salt Lake Center
11:59AM 45.3947 -104.2300 279° West 399 459 36,000  Level Salt Lake Center
12:00PM 45.4114 -104.3828 279° West 395 455 36,000  Level Salt Lake Center
12:01PM 45.4325 -104.5567 280° West 393 452 36,000  Level Salt Lake Center
12:02PM 45.4478 -104.7031 279° West 392 451 36,000  Level Salt Lake Center
12:03PM 45.4672 -104.8733 279° West 391 450 36,000  Level Salt Lake Center
12:04PM 45.4828 -105.0178 279° West 388 447 36,000  Level Salt Lake Center
12:05PM 45.5006 -105.1881 279° West 389 448 36,000  Level Salt Lake Center
12:06PM 45.5156 -105.3322 278° West 387 445 36,000  Level Salt Lake Center
12:07PM 45.5336 -105.5014 279° West 385 443 36,000  Level Salt Lake Center
12:08PM 45.5475 -105.6467 278° West 386 444 36,000  Level Salt Lake Center
12:09PM 45.5642 -105.8150 278° West 384 442 36,000  Level Salt Lake Center
12:10PM 45.5794 -105.9586 279° West 384 442 36,000  Level Salt Lake Center
12:11PM 45.5936 -106.1019 278° West 382 440 36,000  Level Salt Lake Center
12:12PM 45.6092 -106.2725 277° West 387 445 36,000  Level Salt Lake Center
12:13PM 45.6225 -106.4167 278° West 386 444 36,000  Level Salt Lake Center
12:14PM 45.6347 -106.5811 276° West 378 435 36,000  Level Salt Lake Center
12:15PM 45.6478 -106.7267 277° West 379 436 36,000  Level Salt Lake Center
12:16PM 45.6650 -106.9008 278° West 391 450 36,000  Level Salt Lake Center
12:17PM 45.6797 -107.0500 278° West 395 455 36,000  Level Salt Lake Center
12:18PM 45.6964 -107.2303 278° West 405 466 36,000  Level Salt Lake Center
12:19PM 45.7097 -107.3819 277° West 403 464 36,000  Level Salt Lake Center
12:20PM 45.7253 -107.5581 277° West 403 464 36,000  Level Salt Lake Center
12:21PM 45.7372 -107.7111 276° West 404 465 36,000  Level Salt Lake Center
12:22PM 45.7519 -107.8911 277° West 409 471 36,000  Level Salt Lake Center
12:23PM 45.7647 -108.0431 277° West 404 465 36,000  Level Salt Lake Center
12:24PM 45.7783 -108.2206 276° West 402 463 36,000  Level Salt Lake Center
12:25PM 45.7903 -108.3725 276° West 401 461 36,000  Level Salt Lake Center
12:26PM 45.8053 -108.5456 277° West 396 456 36,000  Level Salt Lake Center
12:28PM 45.8114 -108.6989 273° West 400 460 36,000  Level Salt Lake Center
12:29PM 45.8169 -108.8722 273° West 392 451 36,000  Level Salt Lake Center
12:30PM 45.8214 -109.0225 272° West 394 453 36,000  Level Salt Lake Center
12:31PM 45.8261 -109.1989 272° West 397 457 36,000  Level Salt Lake Center
12:32PM 45.8303 -109.3483 272° West 394 453 36,000  Level Salt Lake Center
12:33PM 45.8336 -109.4994 272° West 396 456 36,000  Level Salt Lake Center
12:34PM 45.8372 -109.6742 272° West 394 453 36,000  Level Salt Lake Center
12:35PM 45.8400 -109.8244 272° West 394 453 36,000  Level Salt Lake Center
12:36PM 45.8431 -110.0019 271° West 398 458 36,000  Level Salt Lake Center
12:37PM 45.8461 -110.1531 272° West 397 457 36,000  Level Salt Lake Center
12:38PM 45.8486 -110.3314 271° West 399 459 36,000  Level Salt Lake Center
12:39PM 45.8506 -110.4839 271° West 400 460 36,000  Level Salt Lake Center
12:40PM 45.8531 -110.6472 271° West 399 459 36,000  Level Salt Lake Center
12:41PM 45.8558 -110.8083 271° West 405 466 36,000  Level Salt Lake Center
12:42PM 45.8572 -110.9719 271° West 411 473 36,000  Level Salt Lake Center
12:43PM 45.8603 -111.1642 271° West 416 479 36,000  Level Salt Lake Center
12:44PM 45.8608 -111.3269 270° West 420 483 36,000  Level Salt Lake Center
12:45PM 45.8606 -111.4908 270° West 416 479 36,000  Level Salt Lake Center
12:46PM 45.8608 -111.6564 270° West 415 478 36,000  Level Salt Lake Center
12:47PM 45.8614 -111.8544 270° West 415 478 36,000  Level Salt Lake Center
12:48PM 45.8608 -112.0194 270° West 415 478 36,000  Level Salt Lake Center
12:49PM 45.8619 -112.1842 271° West 413 475 36,000  Level Salt Lake Center
12:50PM 45.8617 -112.3497 270° West 415 478 36,000  Level Salt Lake Center
12:51PM 45.8619 -112.5144 270° West 414 476 36,000  Level Salt Lake Center
12:52PM 45.8628 -112.6764 270° West 408 470 36,000  Level Salt Lake Center
12:53PM 45.8628 -112.8414 270° West 413 475 36,000  Level Salt Lake Center
12:54PM 45.8622 -113.0386 270° West 412 474 36,000  Level Salt Lake Center
12:55PM 45.8614 -113.2058 270° West 418 481 36,000  Level Salt Lake Center
12:56PM 45.8608 -113.3700 270° West 414 476 36,000  Level Salt Lake Center
12:57PM 45.8600 -113.5361 270° West 416 479 36,000  Level Salt Lake Center
12:58PM 45.8606 -113.6992 270° West 413 475 36,000  Level Salt Lake Center
01:00PM 45.8586 -113.8656 269° West 416 479 36,000  Level Salt Lake Center
01:01PM 45.8569 -114.0317 269° West 418 481 36,000  Level Salt Lake Center
01:02PM 45.8558 -114.1969 270° West 416 479 36,000  Level Salt Lake Center
01:03PM 45.8531 -114.3983 269° West 419 482 36,000  Level Salt Lake Center
01:04PM 45.8503 -114.5719 269° West 423 487 36,000  Level Salt Lake Center
01:04PM 45.8483 -114.6486 268° West 419 482 36,000  Level Seattle Center
01:05PM 45.8464 -114.8128 269° West 421 484 36,000  Level Seattle Center
01:06PM 45.8428 -114.9719 268° West 419 482 36,000  Level Seattle Center
01:07PM 45.8397 -115.1622 269° West 426 490 36,000  Level Seattle Center
01:08PM 45.8369 -115.2697 268° West 426 490 36,000  Level Salt Lake Center
01:09PM 45.8333 -115.4303 268° West 424 488 36,000  Level Salt Lake Center
01:09PM 45.8317 -115.4897 268° West 424 488 36,000  Level Seattle Center
01:10PM 45.8278 -115.6600 268° West 426 490 36,000  Level Seattle Center
01:11PM 45.8233 -115.8269 268° West 422 486 36,000  Level Seattle Center
01:12PM 45.8183 -115.9958 268° West 423 487 36,000  Level Seattle Center
01:13PM 45.8133 -116.1644 268° West 425 489 36,000  Level Seattle Center
01:14PM 45.8083 -116.3333 268° West 425 489 36,000  Level Seattle Center
01:15PM 45.8017 -116.5372 267° West 427 491 36,000  Level Seattle Center
01:16PM 45.7953 -116.7078 267° West 428 493 36,000  Level Seattle Center
01:17PM 45.7900 -116.8767 267° West 426 490 36,000  Level Seattle Center
01:18PM 45.7833 -117.0469 267° West 428 493 36,000  Level Seattle Center
01:19PM 45.7767 -117.2175 267° West 429 494 36,000  Level Seattle Center
01:20PM 45.7700 -117.3875 267° West 429 494 36,000  Level Seattle Center
01:21PM 45.7636 -117.5583 267° West 429 494 36,000  Level Seattle Center
01:22PM 45.7556 -117.7281 266° West 429 494 36,000  Level Seattle Center
01:23PM 45.7489 -117.8989 267° West 430 495 36,000 -540 Level Seattle Center
01:24PM 45.7403 -118.0689 266° West 429 494 35,000 -1,080 Descending Seattle Center
01:25PM 45.7322 -118.2369 266° West 426 490 33,900 -540 Descending Seattle Center
01:26PM 45.7244 -118.4078 266° West 430 495 34,000  Climbing Seattle Center
01:28PM 45.7142 -118.5983 266° West 430 495 34,000  Level Seattle Center
01:29PM 45.7053 -118.7683 266° West 431 496 34,000  Level Seattle Center
01:30PM 45.6956 -118.9383 265° West 431 496 34,000  Level Seattle Center
01:31PM 45.6786 -119.1083 262° West 434 499 34,000  Level Seattle Center
01:32PM 45.6581 -119.2753 260° West 431 496 34,000  Level Seattle Center
01:33PM 45.6389 -119.4439 261° West 433 498 34,000  Level Seattle Center
01:34PM 45.6139 -119.6453 260° West 433 498 34,000  Level Seattle Center
01:35PM 45.5931 -119.8117 260° West 431 496 34,000 -840 Level Seattle Center
01:36PM 45.5717 -119.9769 260° West 429 494 32,400 -1,500 Descending Seattle Center
01:37PM 45.5517 -120.1378 260° West 418 481 31,000 -1,500 Descending Seattle Center
01:38PM 45.5308 -120.2989 260° West 419 482 29,400 -1,620 Descending Seattle Center
01:39PM 45.5161 -120.4531 262° West 402 463 27,800 -1,500 Descending Seattle Center
01:40PM 45.5206 -120.6100 272° West 397 457 26,400 -1,560 Descending Seattle Center
01:41PM 45.5228 -120.7625 271° West 394 453 24,700 -2,340 Descending Seattle Center
01:42PM 45.5256 -120.9364 271° West 374 430 21,700 -2,580 Descending Seattle Center
01:43PM 45.5272 -121.0772 271° West 364 419 19,500 -2,340 Descending Seattle Center
01:44PM 45.5278 -121.2147 270° West 353 406 17,000 -2,700 Descending Seattle Center
01:44PM 45.5303 -121.2981 272° West 345 397 15,300 -2,340 Descending Seattle Center
01:45PM 45.5281 -121.3475 266° West 342 394 14,600 -2,100 Descending Seattle Center
01:45PM 45.5311 -121.4031 275° West 332 382 13,600 -2,460 Descending Seattle Center
01:46PM 45.5292 -121.4783 268° West 336 387 12,100 -2,400 Descending Seattle Center
01:46PM 45.5303 -121.5333 272° West 329 379 11,200 -1,800 Descending Seattle Center
01:47PM 45.5286 -121.6047 268° West 327 376 10,300 -1,500 Descending Seattle Center
01:47PM 45.5297 -121.6544 272° West 294 338 9,700 -1,380 Descending Seattle Center
01:48PM 45.5250 -121.7194 264° West 301 346 8,900 -1,500 Descending Seattle Center
01:48PM 45.5267 -121.7733 273° West 282 325 8,200 -1,140 Descending Seattle Center
01:49PM 45.5214 -121.8306 263° West 287 330 7,800 -720 Descending Seattle Center
01:49PM 45.5233 -121.8828 273° West 272 313 7,500 -840 Descending Seattle Center
01:50PM 45.5214 -121.9483 268° West 274 315 7,000 -480 Descending Seattle Center
01:51PM 45.5194 -122.0556 269° West 271 312 6,700 -600 Descending Seattle Center
01:52PM 45.5197 -122.1528 270° West 255 293 5,800 -1,080 Descending Seattle Center
01:53PM 45.5172 -122.2417 268° West 238 274 4,600 -1,140 Descending Seattle Center
01:54PM 45.5186 -122.3289 271° West 225 259 3,500 -1,140 Descending Seattle Center